createdAt,value
2023-03-15T00:00:21.982Z,72.24
2023-03-15T00:03:16.415Z,72.29
2023-03-15T00:05:52.688Z,72.20
2023-03-15T00:08:26.808Z,72.06
2023-03-15T00:11:00.670Z,72.03
2023-03-15T00:13:35.040Z,71.86
2023-03-15T00:16:09.638Z,71.77
2023-03-15T00:18:43.498Z,71.72
2023-03-15T00:21:17.202Z,71.68
2023-03-15T00:23:50.887Z,71.54
2023-03-15T00:26:25.155Z,71.41
2023-03-15T00:28:58.705Z,71.37
2023-03-15T00:31:32.440Z,71.30
2023-03-15T00:34:05.897Z,71.27
2023-03-15T00:36:39.530Z,71.19
2023-03-15T00:39:13.055Z,70.84
2023-03-15T00:41:47.246Z,70.21
2023-03-15T00:44:21.637Z,69.40
2023-03-15T00:46:55.760Z,68.43
2023-03-15T00:49:29.502Z,66.88
2023-03-15T00:52:03.779Z,66.41
2023-03-15T00:54:38.027Z,65.95
2023-03-15T00:57:11.918Z,65.90
2023-03-15T00:59:45.586Z,65.86
2023-03-15T01:02:22.406Z,66.06
2023-03-15T01:04:56.588Z,65.82
2023-03-15T01:07:30.363Z,65.92
2023-03-15T01:10:03.953Z,66.49
2023-03-15T01:12:37.991Z,66.83
2023-03-15T01:15:15.048Z,67.17
2023-03-15T01:17:49.062Z,67.62
2023-03-15T01:20:22.825Z,67.83
2023-03-15T01:22:56.193Z,68.35
2023-03-15T01:25:29.494Z,68.54
2023-03-15T01:28:03.823Z,68.81
2023-03-15T01:30:37.475Z,68.93
2023-03-15T01:33:11.571Z,68.96
2023-03-15T01:35:45.349Z,69.11
2023-03-15T01:38:19.288Z,69.03
2023-03-15T01:40:53.194Z,68.90
2023-03-15T01:43:28.303Z,68.75
2023-03-15T01:46:08.467Z,68.76
2023-03-15T01:48:50.189Z,68.95
2023-03-15T01:51:34.717Z,69.09
2023-03-15T01:54:12.313Z,69.19
2023-03-15T01:56:54.108Z,69.09
2023-03-15T01:59:32.470Z,68.80
2023-03-15T02:02:07.131Z,68.75
2023-03-15T02:04:46.829Z,68.90
2023-03-15T02:07:23.055Z,68.92
2023-03-15T02:10:03.735Z,68.96
2023-03-15T02:12:43.662Z,68.94
2023-03-15T02:15:18.053Z,69.04
2023-03-15T02:17:52.313Z,68.92
2023-03-15T02:20:37.697Z,68.64
2023-03-15T02:23:14.855Z,68.70
2023-03-15T02:25:58.431Z,68.60
2023-03-15T02:28:34.853Z,68.43
2023-03-15T02:31:08.257Z,68.19
2023-03-15T02:33:45.615Z,68.07
2023-03-15T02:36:23.713Z,67.91
2023-03-15T02:38:58.311Z,67.58
2023-03-15T02:41:36.779Z,67.58
2023-03-15T02:44:13.567Z,67.51
2023-03-15T02:46:49.658Z,67.34
2023-03-15T02:49:29.991Z,67.33
2023-03-15T02:52:04.029Z,67.44
2023-03-15T02:54:37.413Z,67.35
2023-03-15T02:57:11.526Z,67.24
2023-03-15T02:59:45.233Z,67.06
2023-03-15T03:02:19.316Z,67.12
2023-03-15T03:04:54.269Z,67.09
2023-03-15T03:07:28.628Z,67.25
2023-03-15T03:10:08.149Z,67.26
2023-03-15T03:12:53.850Z,67.09
2023-03-15T03:15:33.362Z,67.10
2023-03-15T03:18:07.452Z,67.17
2023-03-15T03:20:41.534Z,67.21
2023-03-15T03:23:15.824Z,67.22
2023-03-15T03:25:49.513Z,67.25
2023-03-15T03:28:24.537Z,67.13
2023-03-15T03:30:59.648Z,67.11
2023-03-15T03:33:33.215Z,67.18
2023-03-15T03:36:07.150Z,67.18
2023-03-15T03:38:40.986Z,67.37
2023-03-15T03:41:15.471Z,67.46
2023-03-15T03:43:49.796Z,67.44
2023-03-15T03:46:23.606Z,67.48
2023-03-15T03:48:59.295Z,67.26
2023-03-15T03:51:34.540Z,67.31
2023-03-15T03:54:08.657Z,67.50
2023-03-15T03:56:42.506Z,67.54
2023-03-15T03:59:16.517Z,67.61
2023-03-15T04:01:58.066Z,67.48
2023-03-15T04:04:31.542Z,67.42
2023-03-15T04:07:05.592Z,67.43
2023-03-15T04:09:43.082Z,67.58
2023-03-15T04:12:17.233Z,67.68
2023-03-15T04:14:52.443Z,67.71
2023-03-15T04:17:28.299Z,67.80
2023-03-15T04:20:06.274Z,67.75
2023-03-15T04:22:50.286Z,67.80
2023-03-15T04:25:34.624Z,67.66
2023-03-15T04:28:19.169Z,67.77
2023-03-15T04:31:19.430Z,67.64
2023-03-15T04:34:19.818Z,67.55
2023-03-15T04:37:10.726Z,67.35
2023-03-15T04:40:08.949Z,67.29
2023-03-15T04:42:55.830Z,67.40
2023-03-15T04:45:48.305Z,67.23
2023-03-15T04:48:47.842Z,67.06
2023-03-15T04:51:57.101Z,66.89
2023-03-15T04:54:46.806Z,66.63
2023-03-15T04:57:44.305Z,66.37
2023-03-15T05:00:37.103Z,66.57
2023-03-15T05:03:29.211Z,66.47
2023-03-15T05:06:21.853Z,66.37
2023-03-15T05:09:19.570Z,66.39
2023-03-15T05:12:16.569Z,66.42
2023-03-15T05:15:18.865Z,66.44
2023-03-15T05:18:19.461Z,66.64
2023-03-15T05:21:12.968Z,66.43
2023-03-15T05:24:05.670Z,66.43
2023-03-15T05:26:58.622Z,66.56
2023-03-15T05:29:52.836Z,66.32
2023-03-15T05:32:53.561Z,65.92
2023-03-15T05:35:46.333Z,65.68
2023-03-15T05:38:27.006Z,65.45
2023-03-15T05:41:19.529Z,65.46
2023-03-15T05:44:02.805Z,65.36
2023-03-15T05:47:06.190Z,64.95
2023-03-15T05:49:58.136Z,64.67
2023-03-15T05:53:04.105Z,64.56
2023-03-15T05:56:11.603Z,64.69
2023-03-15T05:58:58.863Z,64.86
2023-03-15T06:01:51.948Z,64.92
2023-03-15T06:04:30.667Z,64.91
2023-03-15T06:07:04.640Z,65.01
2023-03-15T06:09:39.306Z,65.08
2023-03-15T06:12:13.959Z,65.03
2023-03-15T06:14:48.595Z,64.83
2023-03-15T06:17:22.469Z,65.02
2023-03-15T06:19:56.577Z,64.97
2023-03-15T06:22:30.025Z,64.87
2023-03-15T06:25:10.000Z,64.88
2023-03-15T06:27:43.563Z,64.54
2023-03-15T06:30:18.205Z,64.46
2023-03-15T06:32:53.262Z,64.55
2023-03-15T06:35:27.289Z,64.30
2023-03-15T06:38:01.464Z,63.92
2023-03-15T06:40:35.475Z,63.77
2023-03-15T06:43:09.290Z,63.66
2023-03-15T06:45:43.311Z,63.54
2023-03-15T06:48:17.801Z,63.66
2023-03-15T06:50:51.784Z,63.58
2023-03-15T06:53:25.480Z,63.33
2023-03-15T06:55:59.307Z,63.04
2023-03-15T06:58:33.191Z,62.65
2023-03-15T07:01:08.411Z,62.50
2023-03-15T07:03:42.316Z,62.39
2023-03-15T07:06:15.840Z,62.40
2023-03-15T07:08:49.382Z,62.13
2023-03-15T07:11:23.460Z,61.94
2023-03-15T07:13:57.271Z,61.91
2023-03-15T07:16:31.340Z,62.09
2023-03-15T07:19:05.635Z,61.60
2023-03-15T07:21:39.533Z,61.24
2023-03-15T07:24:13.626Z,61.46
2023-03-15T07:26:47.159Z,61.10
2023-03-15T07:29:20.685Z,61.10
2023-03-15T07:31:54.178Z,61.17
2023-03-15T07:34:28.119Z,61.05
2023-03-15T07:37:02.041Z,60.50
2023-03-15T07:39:35.815Z,60.16
2023-03-15T07:42:10.044Z,60.51
2023-03-15T07:44:48.326Z,60.26
2023-03-15T07:47:22.197Z,60.29
2023-03-15T07:49:56.161Z,60.45
2023-03-15T07:52:29.580Z,60.45
2023-03-15T07:55:05.179Z,60.22
2023-03-15T07:57:39.471Z,59.99
2023-03-15T08:00:15.610Z,59.85
2023-03-15T08:02:49.481Z,60.05
2023-03-15T08:05:23.128Z,60.13
2023-03-15T08:07:57.125Z,60.13
2023-03-15T08:10:31.938Z,59.73
2023-03-15T08:13:05.885Z,58.81
2023-03-15T08:15:39.496Z,58.63
2023-03-15T08:18:13.319Z,59.70
2023-03-15T08:20:46.791Z,58.08
2023-03-15T08:23:20.702Z,57.60
2023-03-15T08:25:54.361Z,56.90
2023-03-15T08:28:28.147Z,56.37
2023-03-15T08:31:01.957Z,55.93
2023-03-15T08:33:35.894Z,55.19
2023-03-15T08:36:10.717Z,54.52
2023-03-15T08:38:44.622Z,54.44
2023-03-15T08:41:18.521Z,55.05
2023-03-15T08:43:52.782Z,54.81
2023-03-15T08:46:26.791Z,54.20
2023-03-15T08:49:01.243Z,55.03
2023-03-15T08:51:35.946Z,55.00
2023-03-15T08:54:09.245Z,53.61
2023-03-15T08:56:42.993Z,53.06
2023-03-15T08:59:28.952Z,53.09
2023-03-15T09:02:05.758Z,53.40
2023-03-15T09:04:40.322Z,53.36
2023-03-15T09:07:14.437Z,52.64
2023-03-15T09:09:48.590Z,52.26
2023-03-15T09:12:23.073Z,53.18
2023-03-15T09:14:57.447Z,53.32
2023-03-15T09:17:32.053Z,53.11
2023-03-15T09:20:09.348Z,52.90
2023-03-15T09:22:43.006Z,52.86
2023-03-15T09:25:17.024Z,52.10
2023-03-15T09:27:50.911Z,51.70
2023-03-15T09:30:25.783Z,51.66
2023-03-15T09:32:59.523Z,51.58
2023-03-15T09:35:33.795Z,51.56
2023-03-15T09:38:07.548Z,50.60
2023-03-15T09:40:46.561Z,50.51
2023-03-15T09:43:47.173Z,51.03
2023-03-15T09:46:31.293Z,51.58
2023-03-15T09:49:14.507Z,51.42
2023-03-15T09:51:53.265Z,50.97
2023-03-15T09:54:27.992Z,50.74
2023-03-15T09:57:04.893Z,51.21
2023-03-15T09:59:43.894Z,51.43
2023-03-15T10:02:25.508Z,50.83
2023-03-15T10:05:04.221Z,48.37
2023-03-15T10:07:38.640Z,47.76
2023-03-15T10:10:20.240Z,44.72
2023-03-15T10:13:02.891Z,43.56
2023-03-15T10:15:46.581Z,42.83
2023-03-15T10:18:36.322Z,42.20
2023-03-15T10:21:17.844Z,42.77
2023-03-15T10:23:55.224Z,42.77
2023-03-15T10:26:34.556Z,42.83
2023-03-15T10:29:16.584Z,42.82
2023-03-15T10:31:53.061Z,43.20
2023-03-15T10:34:27.859Z,43.06
2023-03-15T10:37:01.792Z,43.47
2023-03-15T10:39:35.653Z,43.66
2023-03-15T10:42:24.243Z,43.76
2023-03-15T10:44:58.226Z,43.69
2023-03-15T10:47:32.009Z,43.13
2023-03-15T10:50:06.255Z,43.17
2023-03-15T10:52:42.227Z,43.07
2023-03-15T10:55:18.678Z,44.07
2023-03-15T10:57:58.010Z,44.28
2023-03-15T11:00:34.840Z,44.54
2023-03-15T11:03:18.094Z,44.71
2023-03-15T11:05:53.537Z,44.95
2023-03-15T11:08:39.047Z,44.96
2023-03-15T11:11:13.071Z,44.80
2023-03-15T11:14:02.074Z,44.80
2023-03-15T11:16:39.721Z,44.83
2023-03-15T11:19:20.122Z,44.90
2023-03-15T11:21:54.780Z,45.09
2023-03-15T11:24:30.568Z,44.83
2023-03-15T11:27:05.937Z,45.13
2023-03-15T11:29:42.067Z,45.42
2023-03-15T11:32:21.002Z,44.74
2023-03-15T11:35:02.467Z,44.38
2023-03-15T11:37:41.979Z,43.95
2023-03-15T11:40:20.666Z,43.37
2023-03-15T11:42:57.118Z,43.14
2023-03-15T11:45:38.043Z,42.80
2023-03-15T11:48:34.283Z,42.71
2023-03-15T11:51:09.993Z,42.74
2023-03-15T11:53:47.878Z,43.07
2023-03-15T11:56:31.008Z,43.40
2023-03-15T11:59:11.718Z,43.05
2023-03-15T12:01:50.266Z,43.68
2023-03-15T12:04:44.451Z,43.85
2023-03-15T12:07:40.400Z,44.11
2023-03-15T12:10:49.915Z,44.06
2023-03-15T12:13:28.123Z,43.24
2023-03-15T12:16:02.389Z,42.65
2023-03-15T12:18:46.574Z,41.21
2023-03-15T12:21:25.363Z,40.03
2023-03-15T12:24:05.647Z,39.44
2023-03-15T12:26:50.813Z,39.22
2023-03-15T12:29:26.581Z,38.98
2023-03-15T12:32:07.967Z,39.48
2023-03-15T12:34:49.530Z,39.63
2023-03-15T12:37:26.177Z,39.79
2023-03-15T12:40:26.849Z,39.82
2023-03-15T12:43:07.760Z,40.26
2023-03-15T12:45:45.857Z,40.12
2023-03-15T12:48:27.696Z,40.01
2023-03-15T12:51:07.511Z,40.15
2023-03-15T12:53:47.908Z,39.88
2023-03-15T12:56:33.027Z,39.91
2023-03-15T12:59:17.211Z,40.05
2023-03-15T13:01:52.342Z,40.40
2023-03-15T13:04:28.024Z,40.77
2023-03-15T13:07:25.347Z,40.95
2023-03-15T13:10:29.685Z,41.11
2023-03-15T13:13:14.451Z,41.73
2023-03-15T13:16:00.196Z,41.92
2023-03-15T13:18:38.315Z,42.16
2023-03-15T13:21:19.964Z,42.57
2023-03-15T13:23:58.852Z,42.50
2023-03-15T13:26:35.467Z,42.30
2023-03-15T13:29:18.007Z,42.02
2023-03-15T13:32:04.870Z,42.26
2023-03-15T13:34:39.155Z,42.23
2023-03-15T13:37:22.290Z,42.06
2023-03-15T13:40:02.546Z,42.35
2023-03-15T13:42:41.321Z,42.51
2023-03-15T13:45:17.698Z,42.58
2023-03-15T13:47:51.731Z,42.54
2023-03-15T13:50:25.903Z,42.83
2023-03-15T13:53:00.104Z,42.84
2023-03-15T13:55:37.984Z,43.20
2023-03-15T13:58:12.843Z,43.43
2023-03-15T14:00:47.575Z,43.51
2023-03-15T14:03:24.397Z,43.54
2023-03-15T14:06:00.047Z,43.55
2023-03-15T14:08:37.189Z,43.59
2023-03-15T14:11:19.920Z,43.58
2023-03-15T14:13:58.204Z,43.39
2023-03-15T14:17:01.004Z,43.54
2023-03-15T14:19:37.730Z,43.86
2023-03-15T14:22:20.326Z,44.23
2023-03-15T14:24:55.225Z,44.43
2023-03-15T14:27:30.994Z,44.64
2023-03-15T14:30:06.860Z,44.72
2023-03-15T14:32:52.748Z,44.90
2023-03-15T14:35:31.867Z,44.96
2023-03-15T14:38:17.225Z,45.09
2023-03-15T14:40:52.489Z,45.39
2023-03-15T14:43:27.325Z,45.65
2023-03-15T14:46:02.076Z,45.71
2023-03-15T14:48:36.168Z,46.10
2023-03-15T14:51:15.193Z,46.06
2023-03-15T14:53:50.910Z,45.83
2023-03-15T14:56:25.174Z,45.75
2023-03-15T14:58:59.146Z,45.92
2023-03-15T15:01:33.644Z,45.76
2023-03-15T15:04:08.093Z,45.62
2023-03-15T15:06:53.524Z,45.63
2023-03-15T15:09:31.339Z,45.49
2023-03-15T15:12:05.390Z,45.43
2023-03-15T15:14:39.014Z,45.46
2023-03-15T15:17:13.817Z,45.37
2023-03-15T15:19:47.697Z,45.67
2023-03-15T15:22:22.016Z,45.74
2023-03-15T15:24:58.226Z,45.75
2023-03-15T15:27:32.461Z,45.96
2023-03-15T15:30:09.948Z,46.23
2023-03-15T15:32:50.363Z,46.39
2023-03-15T15:35:24.711Z,46.29
2023-03-15T15:37:59.424Z,46.28
2023-03-15T15:40:35.474Z,46.49
2023-03-15T15:43:12.216Z,46.72
2023-03-15T15:45:47.250Z,46.86
2023-03-15T15:48:21.421Z,47.04
2023-03-15T15:50:57.068Z,47.22
2023-03-15T15:53:34.648Z,47.21
2023-03-15T15:56:12.946Z,47.33
2023-03-15T15:58:48.302Z,47.56
2023-03-15T16:01:23.278Z,47.76
2023-03-15T16:03:58.710Z,47.91
2023-03-15T16:06:35.486Z,48.11
2023-03-15T16:09:14.156Z,48.12
2023-03-15T16:11:49.500Z,47.93
2023-03-15T16:14:24.967Z,47.94
2023-03-15T16:17:00.359Z,47.80
2023-03-15T16:19:34.947Z,47.74
2023-03-15T16:22:09.077Z,47.66
2023-03-15T16:24:48.115Z,47.64
2023-03-15T16:27:29.879Z,47.95
2023-03-15T16:30:17.950Z,47.99
2023-03-15T16:32:55.959Z,48.21
2023-03-15T16:35:37.446Z,48.42
2023-03-15T16:38:24.821Z,48.66
2023-03-15T16:41:02.825Z,48.77
2023-03-15T16:43:43.479Z,48.91
2023-03-15T16:46:26.455Z,49.19
2023-03-15T16:49:04.980Z,49.37
2023-03-15T16:51:45.330Z,49.50
2023-03-15T16:57:26.277Z,50.00
2023-03-15T17:00:12.771Z,50.19
2023-03-15T17:02:53.329Z,50.34
2023-03-15T17:05:31.511Z,50.47
2023-03-15T17:08:08.088Z,50.56
2023-03-15T17:10:49.710Z,50.65
2023-03-15T17:13:37.850Z,50.95
2023-03-15T17:16:14.725Z,51.27
2023-03-15T17:18:54.835Z,51.38
2023-03-15T17:21:38.915Z,51.70
2023-03-15T17:24:17.582Z,51.83
2023-03-15T17:26:58.648Z,51.82
2023-03-15T17:29:38.223Z,51.91
2023-03-15T17:32:21.333Z,52.10
2023-03-15T17:35:02.785Z,52.19
2023-03-15T17:37:46.073Z,52.26
2023-03-15T17:40:39.305Z,52.38
2023-03-15T17:43:20.600Z,52.55
2023-03-15T17:46:01.860Z,52.69
2023-03-15T17:48:44.948Z,52.85
2023-03-15T17:51:24.945Z,52.99
2023-03-15T17:54:01.875Z,53.07
2023-03-15T17:56:46.941Z,53.35
2023-03-15T17:59:22.149Z,53.46
2023-03-15T18:01:59.473Z,53.55
2023-03-15T18:04:41.448Z,53.75
2023-03-15T18:07:20.687Z,53.95
2023-03-15T18:10:00.872Z,54.12
2023-03-15T18:12:40.788Z,54.31
2023-03-15T18:15:24.855Z,54.55
2023-03-15T18:18:01.141Z,54.63
2023-03-15T18:20:38.098Z,54.73
2023-03-15T18:23:18.486Z,54.80
2023-03-15T18:25:57.314Z,55.10
2023-03-15T18:28:35.277Z,55.29
2023-03-15T18:31:17.738Z,55.36
2023-03-15T18:33:55.861Z,55.50
2023-03-15T18:36:34.836Z,55.57
2023-03-15T18:39:13.309Z,55.67
2023-03-15T18:41:47.946Z,55.79
2023-03-15T18:44:27.292Z,56.17
2023-03-15T18:47:08.409Z,56.22
2023-03-15T18:49:51.150Z,56.35
2023-03-15T18:52:32.591Z,56.37
2023-03-15T18:55:17.842Z,56.44
2023-03-15T18:57:58.441Z,56.60
2023-03-15T19:00:38.028Z,56.64
2023-03-15T19:03:20.554Z,56.62
2023-03-15T19:06:10.970Z,56.57
2023-03-15T19:08:56.169Z,56.69
2023-03-15T19:11:39.467Z,56.75
2023-03-15T19:14:17.797Z,56.81
2023-03-15T19:17:00.899Z,56.89
2023-03-15T19:19:39.028Z,56.93
2023-03-15T19:22:16.070Z,57.02
2023-03-15T19:24:55.662Z,57.09
2023-03-15T19:27:33.554Z,57.15
2023-03-15T19:30:15.786Z,57.20
2023-03-15T19:33:05.009Z,57.26
2023-03-15T19:35:42.664Z,57.30
2023-03-15T19:38:20.071Z,57.33
2023-03-15T19:41:01.981Z,57.39
2023-03-15T19:43:44.133Z,57.48
2023-03-15T19:46:29.686Z,57.53
2023-03-15T19:49:11.661Z,57.63
2023-03-15T19:51:53.094Z,57.79
2023-03-15T19:54:34.171Z,57.83
2023-03-15T19:57:16.565Z,57.86
2023-03-15T19:59:55.011Z,57.88
2023-03-15T20:02:37.667Z,58.02
2023-03-15T20:05:17.975Z,58.00
2023-03-15T20:07:59.571Z,58.07
2023-03-15T20:10:41.356Z,58.12
2023-03-15T20:13:23.003Z,58.24
2023-03-15T20:16:02.728Z,58.37
2023-03-15T20:18:44.072Z,58.35
2023-03-15T20:21:23.380Z,58.38
2023-03-15T20:24:05.807Z,58.27
2023-03-15T20:26:47.720Z,58.36
2023-03-15T20:29:28.030Z,58.29
2023-03-15T20:32:05.715Z,58.41
2023-03-15T20:34:47.351Z,58.53
2023-03-15T20:37:25.670Z,58.60
2023-03-15T20:40:10.974Z,58.66
2023-03-15T20:42:52.429Z,58.71
2023-03-15T20:45:33.173Z,58.73
2023-03-15T20:48:11.477Z,58.93
2023-03-15T20:50:47.307Z,59.05
2023-03-15T20:53:25.346Z,59.25
2023-03-15T20:56:05.739Z,59.29
2023-03-15T20:58:43.715Z,59.30
2023-03-15T21:01:27.234Z,59.43
2023-03-15T21:04:09.873Z,59.45
2023-03-15T21:06:51.800Z,59.46
2023-03-15T21:09:31.629Z,59.36
2023-03-15T21:12:16.986Z,59.43
2023-03-15T21:15:03.649Z,59.60
2023-03-15T21:17:42.431Z,59.56
2023-03-15T21:20:19.160Z,59.48
2023-03-15T21:22:57.417Z,59.71
2023-03-15T21:25:31.054Z,59.63
2023-03-15T21:28:09.586Z,59.74
2023-03-15T21:30:45.867Z,59.82
2023-03-15T21:33:20.872Z,59.75
2023-03-15T21:36:00.262Z,59.78
2023-03-15T21:38:38.050Z,59.76
2023-03-15T21:41:14.585Z,59.76
2023-03-15T21:43:53.336Z,59.78
2023-03-15T21:46:28.366Z,59.86
2023-03-15T21:49:04.507Z,59.75
2023-03-15T21:51:39.898Z,59.74
2023-03-15T21:54:15.613Z,59.80
2023-03-15T21:56:53.738Z,59.85
2023-03-15T21:59:28.781Z,59.91
2023-03-15T22:02:04.063Z,59.84
2023-03-15T22:04:38.588Z,59.89
2023-03-15T22:07:12.986Z,59.87
2023-03-15T22:09:46.900Z,60.03
2023-03-15T22:12:20.853Z,60.06
2023-03-15T22:15:05.377Z,60.14
2023-03-15T22:17:39.863Z,60.16
2023-03-15T22:20:17.090Z,60.16
2023-03-15T22:22:51.628Z,60.11
2023-03-15T22:25:25.876Z,60.26
2023-03-15T22:27:59.194Z,60.20
2023-03-15T22:30:33.487Z,60.25
2023-03-15T22:33:07.544Z,60.27
2023-03-15T22:35:41.803Z,60.35
2023-03-15T22:38:16.086Z,60.35
2023-03-15T22:40:49.923Z,60.53
2023-03-15T22:43:23.922Z,60.54
2023-03-15T22:45:57.640Z,60.72
2023-03-15T22:48:32.238Z,60.81
2023-03-15T22:51:07.254Z,60.84
2023-03-15T22:53:40.820Z,60.94
2023-03-15T22:56:14.713Z,60.97
2023-03-15T22:58:49.082Z,61.06
2023-03-15T23:01:23.119Z,61.07
2023-03-15T23:03:57.139Z,61.05
2023-03-15T23:06:30.835Z,60.95
2023-03-15T23:09:06.592Z,60.98
2023-03-15T23:11:40.679Z,61.04
2023-03-15T23:14:14.736Z,61.08
2023-03-15T23:16:48.568Z,61.17
2023-03-15T23:19:22.688Z,61.17
2023-03-15T23:21:56.163Z,61.28
2023-03-15T23:24:29.732Z,61.35
2023-03-15T23:27:03.717Z,61.37
2023-03-15T23:29:53.014Z,61.41
2023-03-15T23:32:28.242Z,61.45
2023-03-15T23:35:03.428Z,61.51
2023-03-15T23:37:37.300Z,61.56
2023-03-15T23:40:15.542Z,61.61
2023-03-15T23:42:53.263Z,61.69
2023-03-15T23:45:28.316Z,61.82
2023-03-15T23:48:02.758Z,61.81
2023-03-15T23:50:39.256Z,61.88
2023-03-15T23:53:12.757Z,61.89
2023-03-15T23:55:46.447Z,61.99
2023-03-15T23:58:20.073Z,62.06
